Fort Benton (79S)
Fort Benton, MT
Field Elevation: 2869
Lat: 47°50.42N  Long: 110°38.11W
CTAF/Unicom Freq: 122.8000
   
     For Weather-by-Phone, call 406-622-5976
Weather Advisories
8/21/2014 02:20 Z
Altimeter 29.88" Hg
Wind 340° @ 11 KT
Gusts 22 KT
Visibility 10 SM
Temperature 18° C (64° F)
Dewpoint 11° C (52° F)
Relative Humidity 63%
Density Altitude 3,900 feet
Condensation Altitude 6,500 feet
  Wind and Runways
Indicated Runway = 32
History
 
 
More Info
All DigiWx sites map
NOAA Forecast
 
Airport IQ 5010
(6S5) Ravalli County
(S71) Edgar Obie
 
about DigiWx
 
FAA Disclaimer: The data displayed is for advisory purposes only and is not to be used for flight planning or operations. For official data, please call 406-622-5976 to hear the current automated AWOS voice message.
  METAR 79S 210220Z AUTO 34011G22KT 10SM 18/11 A2988